createdAt,value
2022-11-10T00:00:04.052Z,100837.91
2022-11-10T00:02:50.150Z,100837.91
2022-11-10T00:05:39.913Z,100841.41
2022-11-10T00:08:26.071Z,100832.56
2022-11-10T00:11:12.785Z,100843.16
2022-11-10T00:14:17.936Z,100848.44
2022-11-10T00:17:05.323Z,100851.09
2022-11-10T00:19:51.719Z,100859.03
2022-11-10T00:22:40.753Z,100866.09
2022-11-10T00:25:28.272Z,100860.81
2022-11-10T00:28:14.520Z,100871.41
2022-11-10T00:31:07.039Z,100882.88
2022-11-10T00:33:53.394Z,100873.16
2022-11-10T00:36:40.047Z,100887.25
2022-11-10T00:39:27.948Z,100897.84
2022-11-10T00:42:14.116Z,100893.44
2022-11-10T00:45:00.804Z,100895.19
2022-11-10T00:47:47.674Z,100891.66
2022-11-10T00:50:34.428Z,100903.09
2022-11-10T00:53:21.213Z,100899.53
2022-11-10T00:56:09.254Z,100909.25
2022-11-10T00:58:55.769Z,100910.16
2022-11-10T01:01:42.460Z,100911.88
2022-11-10T01:04:28.904Z,100911.00
2022-11-10T01:07:15.488Z,100913.66
2022-11-10T01:10:01.943Z,100918.94
2022-11-10T01:12:49.837Z,100918.91
2022-11-10T01:15:40.169Z,100920.69
2022-11-10T01:18:26.682Z,100919.78
2022-11-10T01:21:13.153Z,100930.38
2022-11-10T01:23:59.782Z,100936.59
2022-11-10T01:26:46.125Z,100928.66
2022-11-10T01:29:34.061Z,100934.84
2022-11-10T01:32:20.537Z,100931.31
2022-11-10T01:35:08.588Z,100934.84
2022-11-10T01:37:55.400Z,100936.63
2022-11-10T01:40:41.985Z,100944.56
2022-11-10T01:43:29.528Z,100950.72
2022-11-10T01:46:17.815Z,100952.50
2022-11-10T01:49:05.297Z,100955.16
2022-11-10T01:51:55.779Z,100950.72
2022-11-10T01:54:45.507Z,100958.63
2022-11-10T01:57:32.519Z,100963.03
2022-11-10T02:00:18.987Z,100962.13
2022-11-10T02:03:13.249Z,100963.91
2022-11-10T02:05:59.941Z,100965.69
2022-11-10T02:08:47.993Z,100973.59
2022-11-10T02:11:35.088Z,100975.34
2022-11-10T02:14:21.613Z,100977.06
2022-11-10T02:17:08.061Z,100985.00
2022-11-10T02:19:59.981Z,100987.66
2022-11-10T02:22:47.884Z,100986.78
2022-11-10T02:25:35.371Z,100992.06
2022-11-10T02:28:21.620Z,100989.38
2022-11-10T02:31:09.313Z,100990.28
2022-11-10T02:33:55.273Z,100994.69
2022-11-10T02:36:42.076Z,100995.56
2022-11-10T02:39:29.816Z,101007.94
2022-11-10T02:42:16.241Z,101003.47
2022-11-10T02:45:02.561Z,101007.88
2022-11-10T02:47:48.900Z,101004.34
2022-11-10T02:50:35.443Z,101003.41
2022-11-10T02:53:22.169Z,101009.59
2022-11-10T02:56:10.548Z,101019.28
2022-11-10T02:58:56.790Z,101021.84
2022-11-10T03:01:43.350Z,101024.47
2022-11-10T03:04:29.515Z,101019.16
2022-11-10T03:07:15.875Z,101023.56
2022-11-10T03:10:02.764Z,101026.19
2022-11-10T03:12:50.559Z,101033.25
2022-11-10T03:15:37.076Z,101043.84
2022-11-10T03:18:23.403Z,101050.88
2022-11-10T03:21:09.907Z,101045.59
2022-11-10T03:23:56.530Z,101050.00
2022-11-10T03:26:42.847Z,101056.16
2022-11-10T03:29:30.239Z,101055.25
2022-11-10T03:32:16.540Z,101058.75
2022-11-10T03:35:03.046Z,101068.38
2022-11-10T03:37:49.378Z,101066.56
2022-11-10T03:40:56.978Z,101079.78
2022-11-10T03:43:42.403Z,101083.31
2022-11-10T03:46:30.128Z,101078.00
2022-11-10T03:49:16.286Z,101076.19
2022-11-10T03:52:02.769Z,101084.16
2022-11-10T03:54:49.488Z,101076.19
2022-11-10T03:57:35.875Z,101084.13
2022-11-10T04:00:22.735Z,101082.31
2022-11-10T04:03:10.719Z,101084.94
2022-11-10T04:06:14.450Z,101085.81
2022-11-10T04:09:00.980Z,101088.44
2022-11-10T04:12:05.122Z,101097.25
2022-11-10T04:15:09.399Z,101098.13
2022-11-10T04:18:15.733Z,101095.47
2022-11-10T04:21:04.716Z,101097.28
2022-11-10T04:23:51.062Z,101101.66
2022-11-10T04:26:38.896Z,101107.78
2022-11-10T04:29:25.354Z,101121.00
2022-11-10T04:32:11.884Z,101126.28
2022-11-10T04:34:58.406Z,101134.19
2022-11-10T04:37:47.575Z,101135.03
2022-11-10T04:40:33.778Z,101142.00
2022-11-10T04:43:20.205Z,101149.91
2022-11-10T04:46:08.905Z,101149.84
2022-11-10T04:48:56.524Z,101154.22
2022-11-10T04:51:42.862Z,101152.41
2022-11-10T04:54:30.933Z,101157.63
2022-11-10T04:57:17.037Z,101162.00
2022-11-10T05:00:04.964Z,101169.00
2022-11-10T05:02:51.737Z,101164.56
2022-11-10T05:05:38.283Z,101164.53
2022-11-10T05:08:24.649Z,101169.78
2022-11-10T05:11:13.276Z,101181.16
2022-11-10T05:13:59.446Z,101175.81
2022-11-10T05:16:45.767Z,101182.84
2022-11-10T05:19:32.150Z,101182.78
2022-11-10T05:22:18.400Z,101183.59
2022-11-10T05:25:04.716Z,101194.13
2022-11-10T05:27:52.348Z,101202.84
2022-11-10T05:30:39.194Z,101200.09
2022-11-10T05:33:25.745Z,101205.31
2022-11-10T05:36:12.182Z,101208.75
2022-11-10T05:38:58.741Z,101226.25
2022-11-10T05:41:45.192Z,101227.13
2022-11-10T05:44:34.057Z,101229.69
2022-11-10T05:47:20.785Z,101234.91
2022-11-10T05:50:09.229Z,101231.34
2022-11-10T05:52:56.338Z,101230.44
2022-11-10T05:55:42.719Z,101237.44
2022-11-10T05:58:29.330Z,101237.41
2022-11-10T06:01:17.934Z,101248.88
2022-11-10T06:04:04.737Z,101254.13
2022-11-10T06:06:51.245Z,101258.47
2022-11-10T06:09:38.042Z,101268.13
2022-11-10T06:12:25.075Z,101273.41
2022-11-10T06:15:12.444Z,101283.00
2022-11-10T06:18:00.099Z,101296.22
2022-11-10T06:20:47.547Z,101300.53
2022-11-10T06:23:33.949Z,101311.06
2022-11-10T06:26:20.074Z,101314.56
2022-11-10T06:29:06.498Z,101319.81
2022-11-10T06:31:53.089Z,101323.28
2022-11-10T06:34:40.608Z,101326.78
2022-11-10T06:37:26.990Z,101324.94
2022-11-10T06:40:14.707Z,101323.09
2022-11-10T06:43:01.552Z,101323.94
2022-11-10T06:45:47.994Z,101337.94
2022-11-10T06:48:34.699Z,101346.72
2022-11-10T06:51:22.244Z,101353.78
2022-11-10T06:54:08.742Z,101363.44
2022-11-10T06:56:55.249Z,101354.59
2022-11-10T06:59:41.811Z,101368.63
2022-11-10T07:02:28.079Z,101377.41
2022-11-10T07:05:15.630Z,101375.72
2022-11-10T07:08:09.106Z,101377.50
2022-11-10T07:10:56.518Z,101390.75
2022-11-10T07:13:43.148Z,101402.25
2022-11-10T07:16:29.710Z,101410.19
2022-11-10T07:19:15.995Z,101416.44
2022-11-10T07:22:06.637Z,101420.94
2022-11-10T07:24:57.713Z,101424.59
2022-11-10T07:27:43.827Z,101416.72
2022-11-10T07:30:32.129Z,101430.94
2022-11-10T07:33:18.453Z,101430.97
2022-11-10T07:36:07.057Z,101437.22
2022-11-10T07:38:58.343Z,101445.25
2022-11-10T07:41:51.253Z,101462.94
2022-11-10T07:44:38.878Z,101463.94
2022-11-10T07:47:26.204Z,101458.75
2022-11-10T07:50:12.586Z,101460.66
2022-11-10T07:53:06.896Z,101462.59
2022-11-10T07:55:53.302Z,101474.16
2022-11-10T07:58:41.160Z,101489.34
2022-11-10T08:01:27.976Z,101477.91
2022-11-10T08:04:14.264Z,101475.41
2022-11-10T08:07:00.716Z,101481.66
2022-11-10T08:09:47.309Z,101495.91
2022-11-10T08:12:33.955Z,101496.91
2022-11-10T08:15:21.808Z,101498.78
2022-11-10T08:18:14.164Z,101506.97
2022-11-10T08:21:01.685Z,101500.19
2022-11-10T08:23:48.170Z,101495.25
2022-11-10T08:26:34.551Z,101512.38
2022-11-10T08:29:20.696Z,101521.44
2022-11-10T08:32:08.692Z,101527.00
2022-11-10T08:34:54.961Z,101529.00
2022-11-10T08:37:41.480Z,101525.66
2022-11-10T08:40:28.796Z,101530.19
2022-11-10T08:43:16.292Z,101550.56
2022-11-10T08:46:02.712Z,101545.34
2022-11-10T08:48:50.251Z,101538.28
2022-11-10T08:51:39.265Z,101553.34
2022-11-10T08:54:25.950Z,101561.31
2022-11-10T08:57:12.347Z,101558.69
2022-11-10T08:59:59.001Z,101556.94
2022-11-10T09:02:45.454Z,101572.06
2022-11-10T09:05:34.015Z,101562.66
2022-11-10T09:08:20.473Z,101567.38
2022-11-10T09:11:07.063Z,101571.25
2022-11-10T09:13:53.211Z,101570.69
2022-11-10T09:16:39.861Z,101571.06
2022-11-10T09:19:26.165Z,101574.00
2022-11-10T09:22:14.164Z,101581.28
2022-11-10T09:25:00.753Z,101588.50
2022-11-10T09:27:47.282Z,101588.66
2022-11-10T09:30:33.919Z,101595.00
2022-11-10T09:33:21.419Z,101594.25
2022-11-10T09:36:08.583Z,101586.38
2022-11-10T09:38:56.348Z,101588.31
2022-11-10T09:41:45.541Z,101593.72
2022-11-10T09:44:37.104Z,101598.22
2022-11-10T09:47:55.725Z,101598.28
2022-11-10T09:50:41.222Z,101606.31
2022-11-10T09:53:33.752Z,101609.91
2022-11-10T09:56:32.088Z,101615.28
2022-11-10T09:59:26.702Z,101619.75
2022-11-10T10:02:29.642Z,101622.41
2022-11-10T10:05:37.675Z,101624.22
2022-11-10T10:08:32.917Z,101618.88
2022-11-10T10:11:34.366Z,101622.44
2022-11-10T10:14:41.819Z,101633.16
2022-11-10T10:17:40.774Z,101634.94
2022-11-10T10:20:34.318Z,101640.25
2022-11-10T10:23:46.905Z,101641.13
2022-11-10T10:26:39.157Z,101642.94
2022-11-10T10:29:33.122Z,101637.59
2022-11-10T10:32:23.345Z,101649.16
2022-11-10T10:35:14.398Z,101640.25
2022-11-10T10:38:03.115Z,101633.13
2022-11-10T10:40:51.785Z,101642.00
2022-11-10T10:43:41.384Z,101639.31
2022-11-10T10:46:32.800Z,101629.50
2022-11-10T10:49:29.716Z,101628.63
2022-11-10T10:52:24.813Z,101642.91
2022-11-10T10:55:14.465Z,101636.69
2022-11-10T10:58:02.664Z,101638.47
2022-11-10T11:00:52.706Z,101645.59
2022-11-10T11:03:42.562Z,101644.69
2022-11-10T11:06:30.349Z,101646.50
2022-11-10T11:09:21.068Z,101635.81
2022-11-10T11:12:09.803Z,101634.91
2022-11-10T11:15:14.345Z,101646.47
2022-11-10T11:18:04.617Z,101653.56
2022-11-10T11:21:01.009Z,101647.31
2022-11-10T11:24:17.747Z,101649.09
2022-11-10T11:27:07.133Z,101654.41
2022-11-10T11:30:11.027Z,101665.94
2022-11-10T11:33:14.746Z,101673.06
2022-11-10T11:36:09.072Z,101671.28
2022-11-10T11:39:04.301Z,101670.34
2022-11-10T11:41:59.175Z,101678.38
2022-11-10T11:44:57.895Z,101686.34
2022-11-10T11:48:00.766Z,101689.03
2022-11-10T11:50:55.264Z,101686.34
2022-11-10T11:53:53.560Z,101687.19
2022-11-10T11:56:43.600Z,101680.94
2022-11-10T11:59:44.203Z,101675.63
2022-11-10T12:02:58.080Z,101675.69
2022-11-10T12:05:53.637Z,101671.22
2022-11-10T12:08:51.510Z,101674.81
2022-11-10T12:11:52.461Z,101695.25
2022-11-10T12:14:53.255Z,101692.50
2022-11-10T12:17:49.997Z,101696.91
2022-11-10T12:20:48.658Z,101701.25
2022-11-10T12:23:50.060Z,101691.38
2022-11-10T12:26:43.395Z,101695.75
2022-11-10T12:29:35.691Z,101686.75
2022-11-10T12:32:29.463Z,101691.97
2022-11-10T12:35:21.333Z,101691.91
2022-11-10T12:38:13.098Z,101693.66
2022-11-10T12:41:11.012Z,101700.75
2022-11-10T12:44:13.888Z,101698.81
2022-11-10T12:47:04.154Z,101702.22
2022-11-10T12:49:58.610Z,101700.31
2022-11-10T12:52:51.251Z,101692.94
2022-11-10T12:55:43.406Z,101688.28
2022-11-10T12:58:31.674Z,101689.25
2022-11-10T13:01:21.191Z,101688.41
2022-11-10T13:04:08.152Z,101692.94
2022-11-10T13:06:58.329Z,101701.13
2022-11-10T13:09:45.688Z,101702.19
2022-11-10T13:12:32.920Z,101703.06
2022-11-10T13:16:02.044Z,101723.63
2022-11-10T13:18:58.555Z,101732.53
2022-11-10T13:22:09.988Z,101731.53
2022-11-10T13:25:37.764Z,101727.03
2022-11-10T13:29:03.012Z,101725.25
2022-11-10T13:31:55.878Z,101741.34
2022-11-10T13:34:45.194Z,101737.72
2022-11-10T13:37:50.647Z,101745.84
2022-11-10T13:40:41.089Z,101745.94
2022-11-10T13:43:28.700Z,101751.41
2022-11-10T13:46:15.565Z,101755.09
2022-11-10T13:49:25.986Z,101760.59
2022-11-10T13:52:17.146Z,101762.50
2022-11-10T13:55:19.096Z,101763.53
2022-11-10T13:58:10.097Z,101771.66
2022-11-10T14:01:22.908Z,101769.94
2022-11-10T14:04:09.661Z,101766.41
2022-11-10T14:06:58.117Z,101784.25
2022-11-10T14:09:49.208Z,101772.69
2022-11-10T14:12:42.485Z,101778.91
2022-11-10T14:15:38.579Z,101774.47
2022-11-10T14:18:29.240Z,101781.59
2022-11-10T14:21:23.415Z,101777.16
2022-11-10T14:24:17.986Z,101782.53
2022-11-10T14:27:13.150Z,101789.66
2022-11-10T14:30:24.829Z,101785.25
2022-11-10T14:33:13.998Z,101795.06
2022-11-10T14:36:02.573Z,101794.19
2022-11-10T14:38:49.662Z,101787.97
2022-11-10T14:41:36.261Z,101792.41
2022-11-10T14:44:25.895Z,101794.19
2022-11-10T14:47:17.747Z,101796.91
2022-11-10T14:50:20.211Z,101796.00
2022-11-10T14:53:15.754Z,101796.91
2022-11-10T14:56:05.196Z,101801.34
2022-11-10T14:58:52.363Z,101808.44
2022-11-10T15:01:44.649Z,101808.44
2022-11-10T15:04:33.352Z,101810.19
2022-11-10T15:07:20.725Z,101814.63
2022-11-10T15:10:14.240Z,101806.59
2022-11-10T15:13:03.941Z,101820.72
2022-11-10T15:15:50.479Z,101823.38
2022-11-10T15:18:38.512Z,101822.41
2022-11-10T15:21:30.836Z,101825.94
2022-11-10T15:24:19.142Z,101829.44
2022-11-10T15:27:06.093Z,101831.13
2022-11-10T15:29:53.621Z,101837.31
2022-11-10T15:32:43.806Z,101832.81
2022-11-10T15:35:32.535Z,101846.06
2022-11-10T15:38:28.199Z,101830.88
2022-11-10T15:41:17.404Z,101830.84
2022-11-10T15:44:18.015Z,101837.84
2022-11-10T15:47:04.780Z,101837.78
2022-11-10T15:49:51.467Z,101840.38
2022-11-10T15:52:39.999Z,101835.84
2022-11-10T15:55:26.522Z,101829.53
2022-11-10T15:58:15.170Z,101833.91
2022-11-10T16:01:02.513Z,101826.72
2022-11-10T16:03:48.778Z,101827.53
2022-11-10T16:06:35.594Z,101830.13
2022-11-10T16:09:24.055Z,101827.38
2022-11-10T16:12:18.234Z,101833.50
2022-11-10T16:15:05.184Z,101829.84
2022-11-10T16:17:51.854Z,101827.09
2022-11-10T16:20:38.396Z,101812.78
2022-11-10T16:23:26.201Z,101826.84
2022-11-10T16:26:17.335Z,101840.06
2022-11-10T16:29:04.314Z,101843.50
2022-11-10T16:31:51.656Z,101855.81
2022-11-10T16:34:38.442Z,101862.75
2022-11-10T16:37:24.971Z,101866.19
2022-11-10T16:40:15.912Z,101872.34
2022-11-10T16:43:03.937Z,101881.06
2022-11-10T16:45:53.646Z,101880.06
2022-11-10T16:48:40.275Z,101886.16
2022-11-10T16:51:30.771Z,101882.47
2022-11-10T16:54:17.327Z,101882.28
2022-11-10T16:57:03.878Z,101891.06
2022-11-10T16:59:51.636Z,101892.72
2022-11-10T17:02:39.862Z,101888.16
2022-11-10T17:05:26.305Z,101891.63
2022-11-10T17:08:22.574Z,101895.91
2022-11-10T17:11:10.238Z,101909.91
2022-11-10T17:13:56.483Z,101916.84
2022-11-10T17:16:46.634Z,101921.16
2022-11-10T17:19:33.469Z,101944.06
2022-11-10T17:22:21.936Z,101950.22
2022-11-10T17:25:16.811Z,101936.00
2022-11-10T17:28:03.372Z,101944.78
2022-11-10T17:30:52.443Z,101941.16
2022-11-10T17:33:40.687Z,101934.06
2022-11-10T17:36:27.293Z,101931.31
2022-11-10T17:39:15.596Z,101933.91
2022-11-10T17:42:02.840Z,101931.16
2022-11-10T17:44:48.989Z,101942.56
2022-11-10T17:47:35.913Z,101942.50
2022-11-10T17:50:24.840Z,101944.19
2022-11-10T17:53:19.595Z,101947.66
2022-11-10T17:56:06.421Z,101946.72
2022-11-10T17:58:53.644Z,101945.72
2022-11-10T18:01:40.257Z,101946.50
2022-11-10T18:04:26.616Z,101956.13
2022-11-10T18:07:14.240Z,101952.56
2022-11-10T18:10:00.787Z,101944.50
2022-11-10T18:12:47.408Z,101943.56
2022-11-10T18:15:33.765Z,101955.84
2022-11-10T18:18:19.950Z,101951.38
2022-11-10T18:21:07.497Z,101941.56
2022-11-10T18:23:54.889Z,101944.13
2022-11-10T18:26:41.298Z,101953.81
2022-11-10T18:29:27.701Z,101953.72
2022-11-10T18:32:14.310Z,101951.00
2022-11-10T18:35:00.500Z,101960.69
2022-11-10T18:37:47.199Z,101966.78
2022-11-10T18:40:35.093Z,101964.06
2022-11-10T18:43:21.634Z,101972.00
2022-11-10T18:46:08.419Z,101967.53
2022-11-10T18:48:54.804Z,101972.78
2022-11-10T18:51:41.660Z,101975.41
2022-11-10T18:54:28.801Z,101978.84
2022-11-10T18:57:16.713Z,101988.56
2022-11-10T19:00:04.933Z,101987.63
2022-11-10T19:02:51.455Z,101995.53
2022-11-10T19:05:38.641Z,101992.84
2022-11-10T19:08:25.858Z,101993.63
2022-11-10T19:11:14.668Z,101994.47
2022-11-10T19:14:02.592Z,101997.06
2022-11-10T19:16:49.000Z,101991.69
2022-11-10T19:19:35.487Z,101997.78
2022-11-10T19:22:22.195Z,102002.97
2022-11-10T19:25:09.559Z,102006.34
2022-11-10T19:27:56.923Z,102007.19
2022-11-10T19:30:44.488Z,102005.28
2022-11-10T19:33:31.724Z,102000.78
2022-11-10T19:36:20.209Z,101999.84
2022-11-10T19:39:07.512Z,101998.88
2022-11-10T19:41:53.960Z,101996.13
2022-11-10T19:44:40.167Z,102000.44
2022-11-10T19:47:28.166Z,102005.66
2022-11-10T19:50:14.782Z,102003.84
2022-11-10T19:53:01.159Z,102007.28
2022-11-10T19:55:47.643Z,102005.44
2022-11-10T19:58:37.201Z,102008.94
2022-11-10T20:01:23.713Z,102017.66
2022-11-10T20:04:12.532Z,102015.81
2022-11-10T20:07:12.733Z,102026.34
2022-11-10T20:10:00.282Z,102026.25
2022-11-10T20:12:46.684Z,102027.16
2022-11-10T20:15:33.104Z,102024.47
2022-11-10T20:18:19.377Z,102018.25
2022-11-10T20:21:08.985Z,102015.56
2022-11-10T20:23:56.121Z,102020.78
2022-11-10T20:26:42.681Z,102033.03
2022-11-10T20:29:29.194Z,102016.19
2022-11-10T20:32:15.447Z,102027.50
2022-11-10T20:35:02.122Z,102034.50
2022-11-10T20:37:49.849Z,102044.97
2022-11-10T20:40:44.310Z,102043.16
2022-11-10T20:43:31.055Z,102046.59
2022-11-10T20:46:40.100Z,102048.31
2022-11-10T20:49:25.958Z,102044.75
2022-11-10T20:52:12.728Z,102046.50
2022-11-10T20:55:01.432Z,102056.13
2022-11-10T20:57:47.901Z,102056.09
2022-11-10T21:00:34.451Z,102060.47
2022-11-10T21:03:20.732Z,102063.06
2022-11-10T21:06:07.995Z,102059.53
2022-11-10T21:08:56.122Z,102056.91
2022-11-10T21:12:01.496Z,102057.72
2022-11-10T21:14:48.026Z,102063.91
2022-11-10T21:17:34.621Z,102059.50
2022-11-10T21:20:20.834Z,102064.84
2022-11-10T21:23:07.299Z,102062.13
2022-11-10T21:25:54.262Z,102047.09
2022-11-10T21:28:42.132Z,102051.50
2022-11-10T21:31:30.057Z,102044.41
2022-11-10T21:34:16.297Z,102050.56
2022-11-10T21:37:02.835Z,102028.50
2022-11-10T21:39:49.861Z,102025.81
2022-11-10T21:42:36.206Z,102039.00
2022-11-10T21:45:23.979Z,102045.97
2022-11-10T21:48:10.451Z,102049.47
2022-11-10T21:51:00.605Z,102052.06
2022-11-10T21:53:47.033Z,102053.78
2022-11-10T21:56:33.684Z,102054.56
2022-11-10T21:59:20.197Z,102054.50
2022-11-10T22:02:10.134Z,102055.31
2022-11-10T22:04:56.590Z,102042.91
2022-11-10T22:07:43.048Z,102043.72
2022-11-10T22:10:47.084Z,102045.41
2022-11-10T22:14:05.188Z,102050.59
2022-11-10T22:17:09.758Z,102038.16
2022-11-10T22:19:57.685Z,102048.69
2022-11-10T22:22:44.183Z,102053.06
2022-11-10T22:25:30.462Z,102051.22
2022-11-10T22:28:16.637Z,102059.97
2022-11-10T22:31:04.086Z,102074.06
2022-11-10T22:33:50.625Z,102081.00
2022-11-10T22:36:38.608Z,102075.66
2022-11-10T22:39:44.734Z,102078.25
2022-11-10T22:42:49.122Z,102080.06
2022-11-10T22:45:35.472Z,102096.72
2022-11-10T22:48:28.525Z,102099.31
2022-11-10T22:51:14.731Z,102109.88
2022-11-10T22:54:03.033Z,102114.22
2022-11-10T22:56:50.738Z,102111.47
2022-11-10T22:59:37.003Z,102110.53
2022-11-10T23:02:23.304Z,102111.34
2022-11-10T23:05:09.846Z,102113.94
2022-11-10T23:07:56.692Z,102108.53
2022-11-10T23:10:44.403Z,102106.72
2022-11-10T23:13:31.054Z,102103.13
2022-11-10T23:16:20.115Z,102110.19
2022-11-10T23:19:06.676Z,102113.66
2022-11-10T23:21:53.192Z,102116.22
2022-11-10T23:24:39.768Z,102122.44
2022-11-10T23:27:27.622Z,102124.09
2022-11-10T23:30:14.003Z,102126.59
2022-11-10T23:33:00.256Z,102114.19
2022-11-10T23:35:46.760Z,102110.59
2022-11-10T23:38:34.382Z,102117.50
2022-11-10T23:41:23.700Z,102105.13
2022-11-10T23:44:11.954Z,102113.81
2022-11-10T23:46:58.325Z,102118.03
2022-11-10T23:49:44.789Z,102116.97
2022-11-10T23:52:31.213Z,102118.59
2022-11-10T23:55:17.834Z,102117.59
2022-11-10T23:58:04.553Z,102125.34
